createdAt,value
2023-02-24T00:11:06.704Z,4.2
2023-02-24T00:26:15.918Z,3.3
2023-02-24T00:41:25.327Z,3.7
2023-02-24T00:56:34.652Z,4.9
2023-02-24T01:11:44.338Z,3.9
2023-02-24T01:26:54.685Z,4.7
2023-02-24T01:42:03.773Z,5.1
2023-02-24T01:57:13.282Z,4.3
2023-02-24T02:12:22.678Z,3.7
2023-02-24T02:27:32.703Z,4.2
2023-02-24T02:42:42.346Z,4
2023-02-24T02:57:52.052Z,3.7
2023-02-24T03:13:01.028Z,3.4
2023-02-24T03:28:09.375Z,3
2023-02-24T03:43:19.777Z,3.9
2023-02-24T03:58:29.024Z,2.6
2023-02-24T04:13:38.660Z,2.7
2023-02-24T04:28:48.114Z,3.2
2023-02-24T04:43:57.125Z,2.8
2023-02-24T04:59:07.161Z,3.5
2023-02-24T05:14:16.497Z,2.6
2023-02-24T05:29:26.073Z,3.5
2023-02-24T05:44:35.864Z,4.5
2023-02-24T05:59:45.898Z,3.4
2023-02-24T06:14:55.008Z,2.4
2023-02-24T06:30:05.674Z,2.3
2023-02-24T06:45:15.065Z,2.5
2023-02-24T07:00:24.805Z,2.8
2023-02-24T07:15:35.985Z,2.2
2023-02-24T07:30:45.403Z,2.2
2023-02-24T07:45:55.594Z,2.5
2023-02-24T08:01:04.993Z,2.8
2023-02-24T08:16:14.759Z,2.6
2023-02-24T08:31:26.431Z,2.5
2023-02-24T08:46:37.153Z,2.5
2023-02-24T09:02:04.057Z,2.7
2023-02-24T09:17:14.701Z,3.9
2023-02-24T09:32:23.791Z,4.3
2023-02-24T09:47:33.268Z,4.1
2023-02-24T10:02:43.004Z,3.8
2023-02-24T10:17:52.823Z,3.6
2023-02-24T10:33:02.460Z,3.2
2023-02-24T10:48:15.607Z,3.9
2023-02-24T11:03:33.132Z,3.6
2023-02-24T11:18:43.405Z,3.8
2023-02-24T11:33:52.620Z,4.4
2023-02-24T11:49:02.219Z,5.1
2023-02-24T12:04:10.940Z,6.3
2023-02-24T12:19:21.290Z,5.3
2023-02-24T12:34:29.782Z,5.5
2023-02-24T12:49:39.925Z,6.5
2023-02-24T13:04:49.545Z,8.5
2023-02-24T13:19:59.360Z,8.8
2023-02-24T13:35:07.888Z,9
2023-02-24T13:50:18.429Z,7.9
2023-02-24T14:05:27.627Z,7.6
2023-02-24T14:20:37.036Z,7.3
2023-02-24T14:35:47.113Z,7.4
2023-02-24T14:50:56.623Z,6.5
2023-02-24T15:06:06.159Z,6.3
2023-02-24T15:21:15.711Z,7.7
2023-02-24T15:36:25.614Z,8.2
2023-02-24T15:51:35.431Z,8.5
2023-02-24T16:06:44.611Z,7.5
2023-02-24T16:21:53.865Z,8
2023-02-24T16:37:03.370Z,8
2023-02-24T16:52:12.661Z,7.8
2023-02-24T17:07:22.450Z,6.3
2023-02-24T17:22:32.551Z,7.3
2023-02-24T17:37:42.557Z,11.5
2023-02-24T17:52:51.929Z,9.3
2023-02-24T18:08:01.924Z,7.4
2023-02-24T18:23:11.914Z,4.1
2023-02-24T18:38:21.835Z,4.2
2023-02-24T18:53:31.561Z,4.9
2023-02-24T19:08:41.101Z,3.4
2023-02-24T19:23:50.680Z,3.8
2023-02-24T19:39:00.019Z,4.4
2023-02-24T19:54:09.906Z,4.8
2023-02-24T20:09:21.513Z,4.1
2023-02-24T20:24:30.851Z,4.1
2023-02-24T20:39:40.789Z,4.3
2023-02-24T20:54:50.368Z,5.6
2023-02-24T21:10:00.314Z,5.2
2023-02-24T21:25:10.121Z,4.7
2023-02-24T21:40:22.349Z,6.3
2023-02-24T21:55:31.994Z,4.9
2023-02-24T22:10:41.804Z,5.2
2023-02-24T22:25:51.262Z,4.7
2023-02-24T22:41:00.349Z,5.3
2023-02-24T22:56:10.284Z,3.5
2023-02-24T23:11:21.159Z,4.4
2023-02-24T23:26:30.714Z,5.2
2023-02-24T23:41:40.285Z,5.1
2023-02-24T23:56:49.636Z,4.4
